createdAt,value
2022-09-02T00:02:28.848Z,18.59
2022-09-02T00:07:30.493Z,18.48
2022-09-02T00:12:33.102Z,18.30
2022-09-02T00:17:35.038Z,18.00
2022-09-02T00:22:36.632Z,17.74
2022-09-02T00:27:39.067Z,17.62
2022-09-02T00:32:41.349Z,18.07
2022-09-02T00:37:44.110Z,18.18
2022-09-02T00:42:47.054Z,18.17
2022-09-02T00:47:49.624Z,18.02
2022-09-02T00:52:55.738Z,17.86
2022-09-02T00:58:09.588Z,17.93
2022-09-02T01:03:15.563Z,17.92
2022-09-02T01:08:23.624Z,17.59
2022-09-02T01:13:30.091Z,17.16
2022-09-02T01:18:31.984Z,17.04
2022-09-02T01:23:35.709Z,17.04
2022-09-02T01:28:37.812Z,16.87
2022-09-02T01:33:39.766Z,16.77
2022-09-02T01:38:41.398Z,16.68
2022-09-02T01:43:43.525Z,16.44
2022-09-02T01:48:45.583Z,16.26
2022-09-02T01:53:48.284Z,16.53
2022-09-02T01:58:50.829Z,16.38
2022-09-02T02:03:54.791Z,16.37
2022-09-02T02:08:58.900Z,16.11
2022-09-02T02:14:01.984Z,16.00
2022-09-02T02:19:04.553Z,16.25
2022-09-02T02:24:07.035Z,16.76
2022-09-02T02:29:09.303Z,16.96
2022-09-02T02:34:13.289Z,16.99
2022-09-02T02:39:15.802Z,16.74
2022-09-02T02:44:18.681Z,16.35
2022-09-02T02:49:23.452Z,15.99
2022-09-02T02:54:27.461Z,15.78
2022-09-02T02:59:37.381Z,15.77
2022-09-02T03:04:39.547Z,15.80
2022-09-02T03:09:41.215Z,15.92
2022-09-02T03:14:43.837Z,16.10
2022-09-02T03:19:46.200Z,16.14
2022-09-02T03:24:47.838Z,16.11
2022-09-02T03:29:49.467Z,16.01
2022-09-02T03:34:53.319Z,15.96
2022-09-02T03:39:56.248Z,15.92
2022-09-02T03:44:58.344Z,15.82
2022-09-02T03:50:00.316Z,15.88
2022-09-02T03:55:04.673Z,15.99
2022-09-02T04:00:12.368Z,16.12
2022-09-02T04:05:20.029Z,16.17
2022-09-02T04:10:22.671Z,16.14
2022-09-02T04:15:25.315Z,16.10
2022-09-02T04:21:05.078Z,16.06
2022-09-02T04:26:14.024Z,16.19
2022-09-02T04:31:18.405Z,16.33
2022-09-02T04:36:24.154Z,16.45
2022-09-02T04:41:30.710Z,16.82
2022-09-02T04:46:36.265Z,16.95
2022-09-02T04:51:42.201Z,16.92
2022-09-02T04:56:45.676Z,16.95
2022-09-02T05:01:48.604Z,17.01
2022-09-02T05:06:54.651Z,17.10
2022-09-02T05:11:57.880Z,17.11
2022-09-02T05:17:07.256Z,17.22
2022-09-02T05:22:12.520Z,17.27
2022-09-02T05:27:17.637Z,17.36
2022-09-02T05:32:21.057Z,17.55
2022-09-02T05:37:24.703Z,17.61
2022-09-02T05:42:26.569Z,17.61
2022-09-02T05:47:28.349Z,17.63
2022-09-02T05:52:30.424Z,17.51
2022-09-02T05:57:32.421Z,17.69
2022-09-02T06:02:37.987Z,17.79
2022-09-02T06:07:39.641Z,17.97
2022-09-02T06:12:43.064Z,18.28
2022-09-02T06:17:45.718Z,18.67
2022-09-02T06:22:49.261Z,18.65
2022-09-02T06:27:54.653Z,18.76
2022-09-02T06:32:56.507Z,19.02
2022-09-02T06:38:00.416Z,18.93
2022-09-02T06:43:03.925Z,18.95
2022-09-02T06:48:09.771Z,19.31
2022-09-02T06:53:14.900Z,19.23
2022-09-02T06:58:16.916Z,19.24
2022-09-02T07:03:18.674Z,19.59
2022-09-02T07:08:21.670Z,19.96
2022-09-02T07:13:24.861Z,20.10
2022-09-02T07:18:27.405Z,20.37
2022-09-02T07:23:29.469Z,20.07
2022-09-02T07:28:31.917Z,20.24
2022-09-02T07:33:33.585Z,21.00
2022-09-02T07:38:36.483Z,21.68
2022-09-02T07:43:39.462Z,21.82
2022-09-02T07:48:41.805Z,22.48
2022-09-02T07:53:44.031Z,23.53
2022-09-02T07:58:46.735Z,22.39
2022-09-02T08:03:48.974Z,22.29
2022-09-02T08:08:50.705Z,22.53
2022-09-02T08:13:52.782Z,22.52
2022-09-02T08:18:54.433Z,23.13
2022-09-02T08:23:56.007Z,23.07
2022-09-02T08:28:57.644Z,23.20
2022-09-02T08:34:00.447Z,23.50
2022-09-02T08:39:04.385Z,23.64
2022-09-02T08:44:07.586Z,23.91
2022-09-02T08:49:17.277Z,23.82
2022-09-02T08:54:30.448Z,24.42
2022-09-02T08:59:32.396Z,24.82
2022-09-02T09:05:08.153Z,25.05
2022-09-02T09:16:26.728Z,25.21
2022-09-02T09:21:31.991Z,26.43
2022-09-02T09:26:39.285Z,25.32
2022-09-02T09:31:41.979Z,26.12
2022-09-02T09:36:47.440Z,26.16
2022-09-02T09:41:49.515Z,26.24
2022-09-02T09:47:01.289Z,26.40
2022-09-02T09:52:03.465Z,28.62
2022-09-02T09:57:21.726Z,27.45
2022-09-02T10:02:26.013Z,27.31
2022-09-02T10:07:39.166Z,26.91
2022-09-02T10:12:41.365Z,27.22
2022-09-02T10:18:49.163Z,27.20
2022-09-02T10:24:02.944Z,26.69
2022-09-02T10:29:20.719Z,27.01
2022-09-02T10:34:28.581Z,27.23
2022-09-02T10:39:32.952Z,28.67
2022-09-02T10:44:55.563Z,28.78
2022-09-02T10:50:18.816Z,30.15
2022-09-02T10:55:49.912Z,29.02
2022-09-02T11:00:55.979Z,28.87
2022-09-02T11:06:09.401Z,28.94
2022-09-02T11:11:17.236Z,30.58
2022-09-02T11:16:28.027Z,30.20
2022-09-02T11:21:57.214Z,30.80
2022-09-02T11:27:32.141Z,28.70
2022-09-02T11:33:05.145Z,27.99
2022-09-02T11:38:29.734Z,28.46
2022-09-02T11:43:40.354Z,28.14
2022-09-02T11:49:16.026Z,28.16
2022-09-02T11:54:21.156Z,29.02
2022-09-02T11:59:43.886Z,28.62
2022-09-02T12:04:59.904Z,28.60
2022-09-02T12:10:03.321Z,27.86
2022-09-02T12:15:04.969Z,27.33
2022-09-02T12:20:10.695Z,28.23
2022-09-02T12:25:24.331Z,28.39
2022-09-02T12:30:56.832Z,28.70
2022-09-02T12:35:59.625Z,28.34
2022-09-02T12:41:23.679Z,28.77
2022-09-02T12:46:31.396Z,28.56
2022-09-02T12:51:56.192Z,28.42
2022-09-02T12:56:57.814Z,29.33
2022-09-02T13:02:18.224Z,28.47
2022-09-02T13:07:41.009Z,28.82
2022-09-02T13:13:16.910Z,29.51
2022-09-02T13:18:34.212Z,29.81
2022-09-02T13:23:47.099Z,28.62
2022-09-02T13:29:07.578Z,29.01
2022-09-02T13:34:13.974Z,28.67
2022-09-02T13:39:18.761Z,28.55
2022-09-02T13:44:26.344Z,28.68
2022-09-02T13:49:37.602Z,29.75
2022-09-02T13:54:43.746Z,29.79
2022-09-02T13:59:51.517Z,29.02
2022-09-02T14:05:36.340Z,29.36
2022-09-02T14:10:39.370Z,29.65
2022-09-02T14:15:41.061Z,29.43
2022-09-02T14:21:00.088Z,30.23
2022-09-02T14:26:03.058Z,30.12
2022-09-02T14:31:07.540Z,29.67
2022-09-02T14:36:13.200Z,28.86
2022-09-02T14:41:22.654Z,30.33
2022-09-02T14:46:27.060Z,29.14
2022-09-02T14:51:45.426Z,30.41
2022-09-02T14:56:51.537Z,29.64
2022-09-02T15:01:55.699Z,29.27
2022-09-02T15:06:57.487Z,30.03
2022-09-02T15:12:02.631Z,28.94
2022-09-02T15:17:08.796Z,28.81
2022-09-02T15:22:10.525Z,28.67
2022-09-02T15:27:13.655Z,28.98
2022-09-02T15:32:15.694Z,28.73
2022-09-02T15:37:17.381Z,28.93
2022-09-02T15:42:19.321Z,28.90
2022-09-02T15:47:21.465Z,29.01
2022-09-02T15:52:23.969Z,28.15
2022-09-02T15:57:26.211Z,28.37
2022-09-02T16:02:27.956Z,28.77
2022-09-02T16:07:29.591Z,28.35
2022-09-02T16:12:32.113Z,28.54
2022-09-02T16:17:33.684Z,28.49
2022-09-02T16:22:35.332Z,28.14
2022-09-02T16:27:37.155Z,28.00
2022-09-02T16:32:38.784Z,27.68
2022-09-02T16:37:40.518Z,27.88
2022-09-02T16:42:42.072Z,28.05
2022-09-02T16:47:43.806Z,28.39
2022-09-02T16:52:45.438Z,27.92
2022-09-02T16:57:47.093Z,27.69
2022-09-02T17:02:48.764Z,27.20
2022-09-02T17:07:50.369Z,27.09
2022-09-02T17:12:54.547Z,26.89
2022-09-02T17:17:56.592Z,26.74
2022-09-02T17:22:58.298Z,26.55
2022-09-02T17:28:03.037Z,26.37
2022-09-02T17:33:04.627Z,26.19
2022-09-02T17:38:06.348Z,26.08
2022-09-02T17:43:08.065Z,25.94
2022-09-02T17:48:34.712Z,25.51
2022-09-02T17:53:32.517Z,25.32
2022-09-02T17:58:54.260Z,24.98
2022-09-02T18:03:59.721Z,24.78
2022-09-02T18:09:03.340Z,24.40
2022-09-02T18:14:17.508Z,24.26
2022-09-02T18:19:19.419Z,24.04
2022-09-02T18:24:49.267Z,23.77
2022-09-02T18:30:14.711Z,23.74
2022-09-02T18:35:47.241Z,23.40
2022-09-02T18:40:57.877Z,23.22
2022-09-02T18:46:00.079Z,23.31
2022-09-02T18:51:11.486Z,23.10
2022-09-02T18:56:17.934Z,22.82
2022-09-02T19:01:22.376Z,22.75
2022-09-02T19:06:26.656Z,22.64
2022-09-02T19:11:35.700Z,22.51
2022-09-02T19:16:38.865Z,22.45
2022-09-02T19:21:52.193Z,22.40
2022-09-02T19:26:59.463Z,22.18
2022-09-02T19:32:01.410Z,22.05
2022-09-02T19:37:05.078Z,21.79
2022-09-02T19:42:06.802Z,21.47
2022-09-02T19:52:32.231Z,21.21
2022-09-02T19:57:34.230Z,21.15
2022-09-02T20:02:36.168Z,21.07
2022-09-02T20:07:37.916Z,21.07
2022-09-02T20:12:39.526Z,21.02
2022-09-02T20:17:41.300Z,20.91
2022-09-02T20:22:43.492Z,20.70
2022-09-02T20:28:02.403Z,20.67
2022-09-02T20:33:12.301Z,20.64
2022-09-02T20:38:22.746Z,20.60
2022-09-02T20:43:46.482Z,20.43
2022-09-02T20:49:08.320Z,20.36
2022-09-02T20:54:25.022Z,20.36
2022-09-02T21:00:09.719Z,20.14
2022-09-02T21:05:22.846Z,20.04
2022-09-02T21:10:36.298Z,19.59
2022-09-02T21:15:56.640Z,19.31
2022-09-02T21:21:20.340Z,18.76
2022-09-02T21:26:34.508Z,18.38
2022-09-02T21:31:39.670Z,18.48
2022-09-02T21:36:53.812Z,18.34
2022-09-02T21:42:06.482Z,18.26
2022-09-02T21:47:11.046Z,18.39
2022-09-02T21:52:24.793Z,18.94
2022-09-02T21:57:50.772Z,18.80
2022-09-02T22:03:21.306Z,18.31
2022-09-02T22:08:33.616Z,18.14
2022-09-02T22:13:35.594Z,17.90
2022-09-02T22:18:47.952Z,17.91
2022-09-02T22:23:49.571Z,18.18
2022-09-02T22:28:57.835Z,18.16
2022-09-02T22:34:03.762Z,18.39
2022-09-02T22:39:05.390Z,18.23
2022-09-02T22:44:13.393Z,18.18
2022-09-02T22:49:19.305Z,17.96
2022-09-02T22:54:20.989Z,17.88
2022-09-02T22:59:37.429Z,18.03
2022-09-02T23:04:50.843Z,18.12
2022-09-02T23:09:57.206Z,18.15
2022-09-02T23:15:00.778Z,18.15
2022-09-02T23:20:44.163Z,17.96
2022-09-02T23:26:07.660Z,17.81
2022-09-02T23:31:23.733Z,17.18
2022-09-02T23:36:46.947Z,17.31
2022-09-02T23:41:48.833Z,17.05
2022-09-02T23:47:12.143Z,16.41
2022-09-02T23:52:31.475Z,16.28
2022-09-02T23:57:48.347Z,16.33
